sensor_id;sensor_type;location;lat;lon;timestamp;P1;durP1;ratioP1;P2;durP2;ratioP2
79371;SDS011;68914;51.262;6.802;2023-06-26T00:00:34;10.40;;;7.60;;
79371;SDS011;68914;51.262;6.802;2023-06-26T00:01:35;10.65;;;7.85;;
79371;SDS011;68914;51.262;6.802;2023-06-26T00:02:35;11.67;;;7.63;;
79371;SDS011;68914;51.262;6.802;2023-06-26T00:03:36;10.25;;;7.20;;
79371;SDS011;68914;51.262;6.802;2023-06-26T00:04:37;10.97;;;7.50;;
79371;SDS011;68914;51.262;6.802;2023-06-26T00:05:38;10.57;;;7.80;;
79371;SDS011;68914;51.262;6.802;2023-06-26T00:06:39;12.20;;;7.53;;
79371;SDS011;68914;51.262;6.802;2023-06-26T00:07:39;11.57;;;7.53;;
79371;SDS011;68914;51.262;6.802;2023-06-26T00:08:40;11.65;;;7.50;;
79371;SDS011;68914;51.262;6.802;2023-06-26T00:09:41;11.63;;;7.60;;
79371;SDS011;68914;51.262;6.802;2023-06-26T00:10:41;11.17;;;7.60;;
79371;SDS011;68914;51.262;6.802;2023-06-26T00:11:42;11.68;;;7.47;;
79371;SDS011;68914;51.262;6.802;2023-06-26T00:12:42;10.10;;;7.60;;
79371;SDS011;68914;51.262;6.802;2023-06-26T00:13:43;11.60;;;8.02;;
79371;SDS011;68914;51.262;6.802;2023-06-26T00:14:44;11.63;;;7.83;;
79371;SDS011;68914;51.262;6.802;2023-06-26T00:15:45;10.85;;;7.78;;
79371;SDS011;68914;51.262;6.802;2023-06-26T00:16:45;10.07;;;7.27;;
79371;SDS011;68914;51.262;6.802;2023-06-26T00:17:46;12.10;;;8.07;;
79371;SDS011;68914;51.262;6.802;2023-06-26T00:18:47;10.98;;;7.70;;
79371;SDS011;68914;51.262;6.802;2023-06-26T00:19:47;12.57;;;7.93;;
79371;SDS011;68914;51.262;6.802;2023-06-26T00:20:49;11.43;;;7.90;;
79371;SDS011;68914;51.262;6.802;2023-06-26T00:21:50;11.68;;;7.65;;
79371;SDS011;68914;51.262;6.802;2023-06-26T00:22:50;10.67;;;7.53;;
79371;SDS011;68914;51.262;6.802;2023-06-26T00:23:51;10.65;;;7.50;;
79371;SDS011;68914;51.262;6.802;2023-06-26T00:24:52;11.23;;;7.72;;
79371;SDS011;68914;51.262;6.802;2023-06-26T00:25:53;11.57;;;7.57;;
79371;SDS011;68914;51.262;6.802;2023-06-26T00:26:54;12.02;;;7.72;;
79371;SDS011;68914;51.262;6.802;2023-06-26T00:27:54;11.45;;;7.53;;
79371;SDS011;68914;51.262;6.802;2023-06-26T00:28:55;11.70;;;8.00;;
79371;SDS011;68914;51.262;6.802;2023-06-26T00:29:56;10.52;;;7.60;;
79371;SDS011;68914;51.262;6.802;2023-06-26T00:30:57;11.82;;;7.70;;
79371;SDS011;68914;51.262;6.802;2023-06-26T00:31:58;10.83;;;7.43;;
79371;SDS011;68914;51.262;6.802;2023-06-26T00:33:00;10.80;;;7.45;;
79371;SDS011;68914;51.262;6.802;2023-06-26T00:34:01;11.27;;;7.70;;
79371;SDS011;68914;51.262;6.802;2023-06-26T00:35:02;10.73;;;7.55;;
79371;SDS011;68914;51.262;6.802;2023-06-26T00:36:03;14.57;;;8.13;;
79371;SDS011;68914;51.262;6.802;2023-06-26T00:37:05;11.77;;;8.05;;
79371;SDS011;68914;51.262;6.802;2023-06-26T00:38:05;14.50;;;7.67;;
79371;SDS011;68914;51.262;6.802;2023-06-26T00:39:06;10.77;;;7.60;;
79371;SDS011;68914;51.262;6.802;2023-06-26T00:40:09;12.00;;;8.10;;
79371;SDS011;68914;51.262;6.802;2023-06-26T00:41:10;11.07;;;7.70;;
79371;SDS011;68914;51.262;6.802;2023-06-26T00:42:12;11.18;;;8.10;;
79371;SDS011;68914;51.262;6.802;2023-06-26T00:43:13;9.93;;;7.07;;
79371;SDS011;68914;51.262;6.802;2023-06-26T00:44:15;12.23;;;7.55;;
79371;SDS011;68914;51.262;6.802;2023-06-26T00:45:16;10.73;;;7.60;;
79371;SDS011;68914;51.262;6.802;2023-06-26T00:46:17;10.80;;;7.33;;
79371;SDS011;68914;51.262;6.802;2023-06-26T00:47:17;10.63;;;7.30;;
79371;SDS011;68914;51.262;6.802;2023-06-26T00:48:18;11.43;;;7.78;;
79371;SDS011;68914;51.262;6.802;2023-06-26T00:49:19;11.00;;;7.47;;
79371;SDS011;68914;51.262;6.802;2023-06-26T00:50:20;12.47;;;7.77;;
79371;SDS011;68914;51.262;6.802;2023-06-26T00:51:21;12.75;;;8.00;;
79371;SDS011;68914;51.262;6.802;2023-06-26T00:52:21;11.20;;;7.63;;
79371;SDS011;68914;51.262;6.802;2023-06-26T00:53:25;11.10;;;7.57;;
79371;SDS011;68914;51.262;6.802;2023-06-26T00:54:25;11.33;;;7.73;;
79371;SDS011;68914;51.262;6.802;2023-06-26T00:55:27;12.73;;;7.63;;
79371;SDS011;68914;51.262;6.802;2023-06-26T00:56:27;11.40;;;7.78;;
79371;SDS011;68914;51.262;6.802;2023-06-26T00:57:29;13.15;;;7.72;;
79371;SDS011;68914;51.262;6.802;2023-06-26T00:58:31;11.18;;;7.53;;
79371;SDS011;68914;51.262;6.802;2023-06-26T00:59:31;10.23;;;7.23;;
79371;SDS011;68914;51.262;6.802;2023-06-26T01:00:32;11.00;;;7.72;;
79371;SDS011;68914;51.262;6.802;2023-06-26T01:01:33;10.75;;;7.53;;
79371;SDS011;68914;51.262;6.802;2023-06-26T01:02:34;10.97;;;7.67;;
79371;SDS011;68914;51.262;6.802;2023-06-26T01:03:34;11.63;;;7.40;;
79371;SDS011;68914;51.262;6.802;2023-06-26T01:04:38;10.20;;;7.40;;
79371;SDS011;68914;51.262;6.802;2023-06-26T01:05:46;12.10;;;7.87;;
79371;SDS011;68914;51.262;6.802;2023-06-26T01:06:51;10.70;;;7.95;;
79371;SDS011;68914;51.262;6.802;2023-06-26T01:07:52;11.98;;;7.60;;
79371;SDS011;68914;51.262;6.802;2023-06-26T01:08:54;10.50;;;7.43;;
79371;SDS011;68914;51.262;6.802;2023-06-26T01:09:54;10.90;;;7.55;;
79371;SDS011;68914;51.262;6.802;2023-06-26T01:10:55;11.00;;;7.70;;
79371;SDS011;68914;51.262;6.802;2023-06-26T01:11:56;11.15;;;7.60;;
79371;SDS011;68914;51.262;6.802;2023-06-26T01:12:56;11.83;;;7.80;;
79371;SDS011;68914;51.262;6.802;2023-06-26T01:13:57;10.70;;;7.95;;
79371;SDS011;68914;51.262;6.802;2023-06-26T01:15:01;10.50;;;7.88;;
79371;SDS011;68914;51.262;6.802;2023-06-26T01:16:02;11.32;;;7.40;;
79371;SDS011;68914;51.262;6.802;2023-06-26T01:17:05;11.52;;;7.15;;
79371;SDS011;68914;51.262;6.802;2023-06-26T01:18:06;10.65;;;7.43;;
79371;SDS011;68914;51.262;6.802;2023-06-26T01:19:13;11.55;;;7.32;;
79371;SDS011;68914;51.262;6.802;2023-06-26T01:20:25;11.87;;;7.33;;
79371;SDS011;68914;51.262;6.802;2023-06-26T01:21:27;10.82;;;7.15;;
79371;SDS011;68914;51.262;6.802;2023-06-26T01:22:43;11.10;;;7.55;;
79371;SDS011;68914;51.262;6.802;2023-06-26T01:26:39;12.18;;;7.38;;
79371;SDS011;68914;51.262;6.802;2023-06-26T01:27:40;11.52;;;7.30;;
79371;SDS011;68914;51.262;6.802;2023-06-26T01:28:43;11.25;;;7.28;;
79371;SDS011;68914;51.262;6.802;2023-06-26T01:29:44;10.50;;;7.55;;
79371;SDS011;68914;51.262;6.802;2023-06-26T01:30:47;12.07;;;7.25;;
79371;SDS011;68914;51.262;6.802;2023-06-26T01:31:48;10.20;;;7.30;;
79371;SDS011;68914;51.262;6.802;2023-06-26T01:32:49;11.10;;;7.47;;
79371;SDS011;68914;51.262;6.802;2023-06-26T01:33:50;11.43;;;7.68;;
79371;SDS011;68914;51.262;6.802;2023-06-26T01:34:54;11.02;;;7.47;;
79371;SDS011;68914;51.262;6.802;2023-06-26T01:35:55;11.90;;;7.32;;
79371;SDS011;68914;51.262;6.802;2023-06-26T01:36:56;11.68;;;7.47;;
79371;SDS011;68914;51.262;6.802;2023-06-26T01:39:17;11.00;;;7.63;;
79371;SDS011;68914;51.262;6.802;2023-06-26T01:40:18;10.68;;;6.97;;
79371;SDS011;68914;51.262;6.802;2023-06-26T01:41:20;10.77;;;7.40;;
79371;SDS011;68914;51.262;6.802;2023-06-26T01:42:21;10.93;;;7.53;;
79371;SDS011;68914;51.262;6.802;2023-06-26T01:43:24;11.20;;;7.43;;
79371;SDS011;68914;51.262;6.802;2023-06-26T01:44:32;10.23;;;7.05;;
79371;SDS011;68914;51.262;6.802;2023-06-26T01:45:40;10.85;;;7.70;;
79371;SDS011;68914;51.262;6.802;2023-06-26T01:48:05;12.43;;;7.22;;
79371;SDS011;68914;51.262;6.802;2023-06-26T01:49:09;11.00;;;7.50;;
79371;SDS011;68914;51.262;6.802;2023-06-26T01:50:24;12.10;;;7.63;;
79371;SDS011;68914;51.262;6.802;2023-06-26T01:51:35;11.88;;;7.30;;
79371;SDS011;68914;51.262;6.802;2023-06-26T01:52:42;11.30;;;7.32;;
79371;SDS011;68914;51.262;6.802;2023-06-26T01:53:45;11.38;;;7.43;;
79371;SDS011;68914;51.262;6.802;2023-06-26T01:54:52;11.43;;;7.30;;
79371;SDS011;68914;51.262;6.802;2023-06-26T01:56:14;10.20;;;7.13;;
79371;SDS011;68914;51.262;6.802;2023-06-26T01:57:17;10.90;;;7.40;;
79371;SDS011;68914;51.262;6.802;2023-06-26T01:58:19;11.43;;;7.47;;
79371;SDS011;68914;51.262;6.802;2023-06-26T01:59:23;10.82;;;7.28;;
79371;SDS011;68914;51.262;6.802;2023-06-26T02:00:26;11.53;;;7.10;;
79371;SDS011;68914;51.262;6.802;2023-06-26T02:01:27;11.95;;;7.18;;
79371;SDS011;68914;51.262;6.802;2023-06-26T02:02:31;10.43;;;7.30;;
79371;SDS011;68914;51.262;6.802;2023-06-26T02:03:31;10.75;;;7.13;;
79371;SDS011;68914;51.262;6.802;2023-06-26T02:04:34;10.75;;;7.18;;
79371;SDS011;68914;51.262;6.802;2023-06-26T02:05:35;10.93;;;7.32;;
79371;SDS011;68914;51.262;6.802;2023-06-26T02:06:35;10.13;;;7.17;;
79371;SDS011;68914;51.262;6.802;2023-06-26T02:07:36;11.15;;;7.32;;
79371;SDS011;68914;51.262;6.802;2023-06-26T02:08:37;10.90;;;7.60;;
79371;SDS011;68914;51.262;6.802;2023-06-26T02:09:37;11.25;;;7.38;;
79371;SDS011;68914;51.262;6.802;2023-06-26T02:10:38;10.07;;;7.27;;
79371;SDS011;68914;51.262;6.802;2023-06-26T02:11:38;11.05;;;7.72;;
79371;SDS011;68914;51.262;6.802;2023-06-26T02:12:39;11.43;;;7.80;;
79371;SDS011;68914;51.262;6.802;2023-06-26T02:13:40;10.90;;;7.57;;
79371;SDS011;68914;51.262;6.802;2023-06-26T02:14:40;10.83;;;7.77;;
79371;SDS011;68914;51.262;6.802;2023-06-26T02:15:41;11.88;;;7.75;;
79371;SDS011;68914;51.262;6.802;2023-06-26T02:16:42;11.43;;;7.88;;
79371;SDS011;68914;51.262;6.802;2023-06-26T02:17:43;11.10;;;7.70;;
79371;SDS011;68914;51.262;6.802;2023-06-26T02:18:48;12.05;;;8.15;;
79371;SDS011;68914;51.262;6.802;2023-06-26T02:19:49;11.52;;;8.00;;
79371;SDS011;68914;51.262;6.802;2023-06-26T02:20:49;10.53;;;7.27;;
79371;SDS011;68914;51.262;6.802;2023-06-26T02:21:50;10.05;;;7.30;;
79371;SDS011;68914;51.262;6.802;2023-06-26T02:22:51;10.43;;;7.38;;
79371;SDS011;68914;51.262;6.802;2023-06-26T02:23:52;11.80;;;7.50;;
79371;SDS011;68914;51.262;6.802;2023-06-26T02:24:52;10.57;;;7.45;;
79371;SDS011;68914;51.262;6.802;2023-06-26T02:25:53;10.23;;;7.27;;
79371;SDS011;68914;51.262;6.802;2023-06-26T02:26:54;11.80;;;7.93;;
79371;SDS011;68914;51.262;6.802;2023-06-26T02:27:54;13.13;;;8.13;;
79371;SDS011;68914;51.262;6.802;2023-06-26T02:28:55;11.67;;;7.93;;
79371;SDS011;68914;51.262;6.802;2023-06-26T02:29:56;12.07;;;8.18;;
79371;SDS011;68914;51.262;6.802;2023-06-26T02:30:56;11.50;;;7.60;;
79371;SDS011;68914;51.262;6.802;2023-06-26T02:31:58;12.82;;;8.00;;
79371;SDS011;68914;51.262;6.802;2023-06-26T02:32:59;11.32;;;7.95;;
79371;SDS011;68914;51.262;6.802;2023-06-26T02:33:59;11.70;;;7.80;;
79371;SDS011;68914;51.262;6.802;2023-06-26T02:35:00;10.90;;;7.78;;
79371;SDS011;68914;51.262;6.802;2023-06-26T02:36:01;12.13;;;8.88;;
79371;SDS011;68914;51.262;6.802;2023-06-26T02:37:02;13.17;;;8.47;;
79371;SDS011;68914;51.262;6.802;2023-06-26T02:38:04;12.13;;;8.65;;
79371;SDS011;68914;51.262;6.802;2023-06-26T02:39:05;11.93;;;8.18;;
79371;SDS011;68914;51.262;6.802;2023-06-26T02:40:07;11.95;;;8.05;;
79371;SDS011;68914;51.262;6.802;2023-06-26T02:41:10;11.85;;;7.90;;
79371;SDS011;68914;51.262;6.802;2023-06-26T02:42:11;11.27;;;8.23;;
79371;SDS011;68914;51.262;6.802;2023-06-26T02:43:12;12.68;;;8.15;;
79371;SDS011;68914;51.262;6.802;2023-06-26T02:44:13;11.50;;;7.90;;
79371;SDS011;68914;51.262;6.802;2023-06-26T02:45:14;12.77;;;8.20;;
79371;SDS011;68914;51.262;6.802;2023-06-26T02:46:15;12.15;;;8.38;;
79371;SDS011;68914;51.262;6.802;2023-06-26T02:47:15;11.35;;;8.00;;
79371;SDS011;68914;51.262;6.802;2023-06-26T02:48:18;12.17;;;8.13;;
79371;SDS011;68914;51.262;6.802;2023-06-26T02:49:18;12.05;;;7.65;;
79371;SDS011;68914;51.262;6.802;2023-06-26T02:50:19;12.05;;;7.85;;
79371;SDS011;68914;51.262;6.802;2023-06-26T02:51:41;12.10;;;7.93;;
79371;SDS011;68914;51.262;6.802;2023-06-26T02:52:50;13.63;;;7.90;;
79371;SDS011;68914;51.262;6.802;2023-06-26T02:53:54;11.80;;;8.13;;
79371;SDS011;68914;51.262;6.802;2023-06-26T02:54:55;11.50;;;7.90;;
79371;SDS011;68914;51.262;6.802;2023-06-26T02:55:55;12.05;;;8.15;;
79371;SDS011;68914;51.262;6.802;2023-06-26T02:56:56;11.00;;;7.77;;
79371;SDS011;68914;51.262;6.802;2023-06-26T02:58:01;12.85;;;8.23;;
79371;SDS011;68914;51.262;6.802;2023-06-26T02:59:02;12.07;;;7.90;;
79371;SDS011;68914;51.262;6.802;2023-06-26T03:00:03;11.82;;;7.50;;
79371;SDS011;68914;51.262;6.802;2023-06-26T03:01:08;11.35;;;7.90;;
79371;SDS011;68914;51.262;6.802;2023-06-26T03:02:09;11.30;;;7.80;;
79371;SDS011;68914;51.262;6.802;2023-06-26T03:03:20;11.40;;;7.88;;
79371;SDS011;68914;51.262;6.802;2023-06-26T03:04:20;12.60;;;7.57;;
79371;SDS011;68914;51.262;6.802;2023-06-26T03:05:22;11.48;;;7.60;;
79371;SDS011;68914;51.262;6.802;2023-06-26T03:06:24;11.30;;;7.70;;
79371;SDS011;68914;51.262;6.802;2023-06-26T03:07:24;12.57;;;7.80;;
79371;SDS011;68914;51.262;6.802;2023-06-26T03:08:26;12.20;;;7.70;;
79371;SDS011;68914;51.262;6.802;2023-06-26T03:09:26;10.70;;;7.25;;
79371;SDS011;68914;51.262;6.802;2023-06-26T03:10:27;10.77;;;7.40;;
79371;SDS011;68914;51.262;6.802;2023-06-26T03:11:28;10.73;;;7.28;;
79371;SDS011;68914;51.262;6.802;2023-06-26T03:12:29;9.90;;;6.88;;
79371;SDS011;68914;51.262;6.802;2023-06-26T03:13:30;12.27;;;7.03;;
79371;SDS011;68914;51.262;6.802;2023-06-26T03:14:30;10.23;;;6.90;;
79371;SDS011;68914;51.262;6.802;2023-06-26T03:15:32;11.35;;;7.07;;
79371;SDS011;68914;51.262;6.802;2023-06-26T03:16:32;11.18;;;7.32;;
79371;SDS011;68914;51.262;6.802;2023-06-26T03:17:33;10.50;;;6.70;;
79371;SDS011;68914;51.262;6.802;2023-06-26T03:18:38;11.27;;;7.00;;
79371;SDS011;68914;51.262;6.802;2023-06-26T03:19:39;12.10;;;7.15;;
79371;SDS011;68914;51.262;6.802;2023-06-26T03:20:54;12.38;;;6.97;;
79371;SDS011;68914;51.262;6.802;2023-06-26T03:21:55;11.60;;;7.60;;
79371;SDS011;68914;51.262;6.802;2023-06-26T03:22:56;11.23;;;6.80;;
79371;SDS011;68914;51.262;6.802;2023-06-26T03:23:57;11.02;;;6.90;;
79371;SDS011;68914;51.262;6.802;2023-06-26T03:24:58;12.38;;;7.38;;
79371;SDS011;68914;51.262;6.802;2023-06-26T03:25:59;11.32;;;7.00;;
79371;SDS011;68914;51.262;6.802;2023-06-26T03:27:03;11.98;;;6.93;;
79371;SDS011;68914;51.262;6.802;2023-06-26T03:28:04;12.43;;;7.43;;
79371;SDS011;68914;51.262;6.802;2023-06-26T03:29:05;13.07;;;8.73;;
79371;SDS011;68914;51.262;6.802;2023-06-26T03:30:07;9.93;;;6.65;;
79371;SDS011;68914;51.262;6.802;2023-06-26T03:31:10;10.93;;;6.93;;
79371;SDS011;68914;51.262;6.802;2023-06-26T03:32:11;14.03;;;7.00;;
79371;SDS011;68914;51.262;6.802;2023-06-26T03:33:12;12.10;;;7.15;;
79371;SDS011;68914;51.262;6.802;2023-06-26T03:34:12;13.30;;;7.15;;
79371;SDS011;68914;51.262;6.802;2023-06-26T03:35:13;10.60;;;6.80;;
79371;SDS011;68914;51.262;6.802;2023-06-26T03:36:14;10.55;;;7.05;;
79371;SDS011;68914;51.262;6.802;2023-06-26T03:37:15;10.77;;;7.10;;
79371;SDS011;68914;51.262;6.802;2023-06-26T03:38:15;11.70;;;6.93;;
79371;SDS011;68914;51.262;6.802;2023-06-26T03:39:18;10.88;;;6.75;;
79371;SDS011;68914;51.262;6.802;2023-06-26T03:40:19;17.92;;;10.90;;
79371;SDS011;68914;51.262;6.802;2023-06-26T03:41:19;11.23;;;7.00;;
79371;SDS011;68914;51.262;6.802;2023-06-26T03:42:20;11.57;;;7.00;;
79371;SDS011;68914;51.262;6.802;2023-06-26T03:43:20;12.20;;;7.40;;
79371;SDS011;68914;51.262;6.802;2023-06-26T03:44:56;12.40;;;6.97;;
79371;SDS011;68914;51.262;6.802;2023-06-26T03:45:57;12.05;;;7.63;;
79371;SDS011;68914;51.262;6.802;2023-06-26T03:46:59;11.88;;;7.30;;
79371;SDS011;68914;51.262;6.802;2023-06-26T03:48:00;10.13;;;7.20;;
79371;SDS011;68914;51.262;6.802;2023-06-26T03:49:01;11.25;;;7.28;;
79371;SDS011;68914;51.262;6.802;2023-06-26T03:50:01;11.97;;;7.00;;
79371;SDS011;68914;51.262;6.802;2023-06-26T03:51:02;11.30;;;7.28;;
79371;SDS011;68914;51.262;6.802;2023-06-26T03:52:03;12.68;;;8.20;;
79371;SDS011;68914;51.262;6.802;2023-06-26T03:53:04;11.35;;;7.50;;
79371;SDS011;68914;51.262;6.802;2023-06-26T03:54:05;13.25;;;7.18;;
79371;SDS011;68914;51.262;6.802;2023-06-26T03:55:06;10.57;;;7.23;;
79371;SDS011;68914;51.262;6.802;2023-06-26T03:56:06;12.18;;;7.60;;
79371;SDS011;68914;51.262;6.802;2023-06-26T03:57:07;13.13;;;7.30;;
79371;SDS011;68914;51.262;6.802;2023-06-26T03:58:08;13.27;;;7.23;;
79371;SDS011;68914;51.262;6.802;2023-06-26T03:59:09;12.57;;;7.10;;
79371;SDS011;68914;51.262;6.802;2023-06-26T04:00:10;11.07;;;7.30;;
79371;SDS011;68914;51.262;6.802;2023-06-26T04:01:15;11.85;;;7.70;;
79371;SDS011;68914;51.262;6.802;2023-06-26T04:02:17;11.70;;;7.07;;
79371;SDS011;68914;51.262;6.802;2023-06-26T04:03:18;12.35;;;7.43;;
79371;SDS011;68914;51.262;6.802;2023-06-26T04:04:21;13.18;;;7.30;;
79371;SDS011;68914;51.262;6.802;2023-06-26T04:05:22;10.80;;;6.88;;
79371;SDS011;68914;51.262;6.802;2023-06-26T04:06:23;12.02;;;7.28;;
79371;SDS011;68914;51.262;6.802;2023-06-26T04:07:23;9.33;;;6.50;;
79371;SDS011;68914;51.262;6.802;2023-06-26T04:08:25;12.13;;;7.13;;
79371;SDS011;68914;51.262;6.802;2023-06-26T04:09:26;11.60;;;7.07;;
79371;SDS011;68914;51.262;6.802;2023-06-26T04:10:27;11.43;;;6.90;;
79371;SDS011;68914;51.262;6.802;2023-06-26T04:11:29;10.88;;;6.90;;
79371;SDS011;68914;51.262;6.802;2023-06-26T04:12:29;12.88;;;7.53;;
79371;SDS011;68914;51.262;6.802;2023-06-26T04:13:30;12.00;;;7.37;;
79371;SDS011;68914;51.262;6.802;2023-06-26T04:14:30;12.10;;;7.30;;
79371;SDS011;68914;51.262;6.802;2023-06-26T04:15:31;11.53;;;7.77;;
79371;SDS011;68914;51.262;6.802;2023-06-26T04:16:32;11.25;;;7.40;;
79371;SDS011;68914;51.262;6.802;2023-06-26T04:17:32;10.37;;;6.77;;
79371;SDS011;68914;51.262;6.802;2023-06-26T04:18:33;10.50;;;7.32;;
79371;SDS011;68914;51.262;6.802;2023-06-26T04:19:34;12.20;;;6.97;;
79371;SDS011;68914;51.262;6.802;2023-06-26T04:20:38;13.20;;;8.43;;
79371;SDS011;68914;51.262;6.802;2023-06-26T04:21:40;10.32;;;6.90;;
79371;SDS011;68914;51.262;6.802;2023-06-26T04:22:41;12.60;;;7.35;;
79371;SDS011;68914;51.262;6.802;2023-06-26T04:23:41;10.70;;;7.20;;
79371;SDS011;68914;51.262;6.802;2023-06-26T04:24:42;11.40;;;7.22;;
79371;SDS011;68914;51.262;6.802;2023-06-26T04:25:46;10.70;;;7.30;;
79371;SDS011;68914;51.262;6.802;2023-06-26T04:26:47;10.95;;;6.90;;
79371;SDS011;68914;51.262;6.802;2023-06-26T04:27:47;10.53;;;6.27;;
79371;SDS011;68914;51.262;6.802;2023-06-26T04:28:48;11.48;;;6.50;;
79371;SDS011;68914;51.262;6.802;2023-06-26T04:29:49;10.33;;;6.43;;
79371;SDS011;68914;51.262;6.802;2023-06-26T04:30:49;10.90;;;6.25;;
79371;SDS011;68914;51.262;6.802;2023-06-26T04:31:51;11.25;;;6.25;;
79371;SDS011;68914;51.262;6.802;2023-06-26T04:32:51;10.15;;;6.15;;
79371;SDS011;68914;51.262;6.802;2023-06-26T04:33:52;11.70;;;6.33;;
79371;SDS011;68914;51.262;6.802;2023-06-26T04:34:55;11.07;;;7.32;;
79371;SDS011;68914;51.262;6.802;2023-06-26T04:35:55;11.23;;;6.20;;
79371;SDS011;68914;51.262;6.802;2023-06-26T04:36:56;10.82;;;6.40;;
79371;SDS011;68914;51.262;6.802;2023-06-26T04:37:57;9.27;;;6.10;;
79371;SDS011;68914;51.262;6.802;2023-06-26T04:38:58;12.40;;;6.57;;
79371;SDS011;68914;51.262;6.802;2023-06-26T04:39:59;11.15;;;6.57;;
79371;SDS011;68914;51.262;6.802;2023-06-26T04:40:59;11.93;;;6.60;;
79371;SDS011;68914;51.262;6.802;2023-06-26T04:42:01;9.60;;;6.33;;
79371;SDS011;68914;51.262;6.802;2023-06-26T04:43:01;11.95;;;6.35;;
79371;SDS011;68914;51.262;6.802;2023-06-26T04:44:02;10.03;;;6.10;;
79371;SDS011;68914;51.262;6.802;2023-06-26T04:45:03;10.07;;;6.13;;
79371;SDS011;68914;51.262;6.802;2023-06-26T04:46:04;11.40;;;6.30;;
79371;SDS011;68914;51.262;6.802;2023-06-26T04:47:05;9.93;;;6.40;;
79371;SDS011;68914;51.262;6.802;2023-06-26T04:48:06;9.77;;;5.83;;
79371;SDS011;68914;51.262;6.802;2023-06-26T04:49:10;9.98;;;5.78;;
79371;SDS011;68914;51.262;6.802;2023-06-26T04:50:12;11.20;;;5.80;;
79371;SDS011;68914;51.262;6.802;2023-06-26T04:51:12;9.70;;;5.63;;
79371;SDS011;68914;51.262;6.802;2023-06-26T04:52:13;10.15;;;5.93;;
79371;SDS011;68914;51.262;6.802;2023-06-26T04:53:14;10.10;;;6.28;;
79371;SDS011;68914;51.262;6.802;2023-06-26T04:54:14;9.30;;;5.70;;
79371;SDS011;68914;51.262;6.802;2023-06-26T04:55:15;11.10;;;5.57;;
79371;SDS011;68914;51.262;6.802;2023-06-26T04:56:15;9.60;;;5.40;;
79371;SDS011;68914;51.262;6.802;2023-06-26T04:57:16;9.32;;;5.70;;
79371;SDS011;68914;51.262;6.802;2023-06-26T04:58:18;10.17;;;6.17;;
79371;SDS011;68914;51.262;6.802;2023-06-26T04:59:19;10.70;;;6.10;;
79371;SDS011;68914;51.262;6.802;2023-06-26T05:00:20;10.43;;;6.15;;
79371;SDS011;68914;51.262;6.802;2023-06-26T05:01:21;9.23;;;5.53;;
79371;SDS011;68914;51.262;6.802;2023-06-26T05:02:21;11.10;;;5.88;;
79371;SDS011;68914;51.262;6.802;2023-06-26T05:03:22;10.80;;;5.70;;
79371;SDS011;68914;51.262;6.802;2023-06-26T05:04:23;9.40;;;5.63;;
79371;SDS011;68914;51.262;6.802;2023-06-26T05:05:23;9.98;;;5.65;;
79371;SDS011;68914;51.262;6.802;2023-06-26T05:06:24;9.07;;;5.30;;
79371;SDS011;68914;51.262;6.802;2023-06-26T05:07:25;10.65;;;5.63;;
79371;SDS011;68914;51.262;6.802;2023-06-26T05:08:26;10.13;;;5.80;;
79371;SDS011;68914;51.262;6.802;2023-06-26T05:09:27;9.38;;;5.55;;
79371;SDS011;68914;51.262;6.802;2023-06-26T05:10:27;8.88;;;5.30;;
79371;SDS011;68914;51.262;6.802;2023-06-26T05:11:28;9.83;;;5.67;;
79371;SDS011;68914;51.262;6.802;2023-06-26T05:12:29;10.05;;;5.45;;
79371;SDS011;68914;51.262;6.802;2023-06-26T05:13:29;9.43;;;5.57;;
79371;SDS011;68914;51.262;6.802;2023-06-26T05:14:30;8.95;;;4.90;;
79371;SDS011;68914;51.262;6.802;2023-06-26T05:15:30;10.50;;;5.10;;
79371;SDS011;68914;51.262;6.802;2023-06-26T05:16:31;9.63;;;5.03;;
79371;SDS011;68914;51.262;6.802;2023-06-26T05:17:31;10.20;;;4.90;;
79371;SDS011;68914;51.262;6.802;2023-06-26T05:18:32;11.52;;;5.20;;
79371;SDS011;68914;51.262;6.802;2023-06-26T05:19:33;8.97;;;4.93;;
79371;SDS011;68914;51.262;6.802;2023-06-26T05:20:34;10.20;;;5.13;;
79371;SDS011;68914;51.262;6.802;2023-06-26T05:21:35;9.25;;;5.20;;
79371;SDS011;68914;51.262;6.802;2023-06-26T05:22:37;9.52;;;4.75;;
79371;SDS011;68914;51.262;6.802;2023-06-26T05:23:39;9.37;;;5.20;;
79371;SDS011;68914;51.262;6.802;2023-06-26T05:24:40;9.82;;;5.05;;
79371;SDS011;68914;51.262;6.802;2023-06-26T05:25:42;9.27;;;4.60;;
79371;SDS011;68914;51.262;6.802;2023-06-26T05:26:43;9.20;;;4.75;;
79371;SDS011;68914;51.262;6.802;2023-06-26T05:27:43;9.25;;;4.88;;
79371;SDS011;68914;51.262;6.802;2023-06-26T05:28:44;10.63;;;4.80;;
79371;SDS011;68914;51.262;6.802;2023-06-26T05:29:48;8.32;;;4.57;;
79371;SDS011;68914;51.262;6.802;2023-06-26T05:30:50;11.67;;;4.70;;
79371;SDS011;68914;51.262;6.802;2023-06-26T05:31:51;9.65;;;4.55;;
79371;SDS011;68914;51.262;6.802;2023-06-26T05:32:54;8.57;;;4.82;;
79371;SDS011;68914;51.262;6.802;2023-06-26T05:33:55;9.15;;;4.30;;
79371;SDS011;68914;51.262;6.802;2023-06-26T05:34:58;8.90;;;4.57;;
79371;SDS011;68914;51.262;6.802;2023-06-26T05:36:02;9.20;;;4.70;;
79371;SDS011;68914;51.262;6.802;2023-06-26T05:37:04;9.32;;;4.80;;
79371;SDS011;68914;51.262;6.802;2023-06-26T05:38:05;8.60;;;4.65;;
79371;SDS011;68914;51.262;6.802;2023-06-26T05:39:07;9.07;;;4.57;;
79371;SDS011;68914;51.262;6.802;2023-06-26T05:40:08;9.63;;;4.53;;
79371;SDS011;68914;51.262;6.802;2023-06-26T05:41:09;8.40;;;4.43;;
79371;SDS011;68914;51.262;6.802;2023-06-26T05:42:10;11.10;;;4.72;;
79371;SDS011;68914;51.262;6.802;2023-06-26T05:43:12;9.13;;;4.70;;
79371;SDS011;68914;51.262;6.802;2023-06-26T05:44:12;10.73;;;4.50;;
79371;SDS011;68914;51.262;6.802;2023-06-26T05:45:13;8.55;;;4.65;;
79371;SDS011;68914;51.262;6.802;2023-06-26T05:46:14;7.67;;;4.30;;
79371;SDS011;68914;51.262;6.802;2023-06-26T05:47:14;12.23;;;4.30;;
79371;SDS011;68914;51.262;6.802;2023-06-26T05:48:15;10.10;;;4.43;;
79371;SDS011;68914;51.262;6.802;2023-06-26T05:49:16;8.05;;;4.28;;
79371;SDS011;68914;51.262;6.802;2023-06-26T05:50:17;9.97;;;4.43;;
79371;SDS011;68914;51.262;6.802;2023-06-26T05:51:19;9.38;;;4.20;;
79371;SDS011;68914;51.262;6.802;2023-06-26T05:52:19;8.90;;;4.45;;
79371;SDS011;68914;51.262;6.802;2023-06-26T05:53:21;9.32;;;4.50;;
79371;SDS011;68914;51.262;6.802;2023-06-26T05:54:23;9.23;;;4.28;;
79371;SDS011;68914;51.262;6.802;2023-06-26T05:55:24;8.23;;;4.05;;
79371;SDS011;68914;51.262;6.802;2023-06-26T05:56:25;9.23;;;4.17;;
79371;SDS011;68914;51.262;6.802;2023-06-26T05:57:27;9.32;;;4.15;;
79371;SDS011;68914;51.262;6.802;2023-06-26T05:58:29;8.18;;;4.03;;
79371;SDS011;68914;51.262;6.802;2023-06-26T05:59:33;9.60;;;4.30;;
79371;SDS011;68914;51.262;6.802;2023-06-26T06:00:37;9.02;;;4.10;;
79371;SDS011;68914;51.262;6.802;2023-06-26T06:01:39;9.50;;;4.10;;
79371;SDS011;68914;51.262;6.802;2023-06-26T06:02:42;9.15;;;4.07;;
79371;SDS011;68914;51.262;6.802;2023-06-26T06:03:43;9.48;;;4.25;;
79371;SDS011;68914;51.262;6.802;2023-06-26T06:04:43;9.23;;;4.00;;
79371;SDS011;68914;51.262;6.802;2023-06-26T06:05:44;9.30;;;4.35;;
79371;SDS011;68914;51.262;6.802;2023-06-26T06:06:45;8.93;;;3.93;;
79371;SDS011;68914;51.262;6.802;2023-06-26T06:07:45;8.88;;;4.35;;
79371;SDS011;68914;51.262;6.802;2023-06-26T06:08:46;11.40;;;4.63;;
79371;SDS011;68914;51.262;6.802;2023-06-26T06:09:46;10.37;;;5.00;;
79371;SDS011;68914;51.262;6.802;2023-06-26T06:10:47;9.83;;;4.03;;
79371;SDS011;68914;51.262;6.802;2023-06-26T06:11:47;8.43;;;3.60;;
79371;SDS011;68914;51.262;6.802;2023-06-26T06:12:48;8.73;;;3.83;;